createdAt,value
2019-04-11T00:00:54.089Z,92776.06
2019-04-11T00:03:27.429Z,92779.88
2019-04-11T00:06:01.382Z,92784.38
2019-04-11T00:08:35.865Z,92782.16
2019-04-11T00:11:11.453Z,92789.23
2019-04-11T00:13:45.201Z,92785.52
2019-04-11T00:16:19.395Z,92786.33
2019-04-11T00:18:53.069Z,92789.81
2019-04-11T00:21:26.388Z,92788.66
2019-04-11T00:23:59.391Z,92785.13
2019-04-11T00:26:32.740Z,92791.64
2019-04-11T00:29:06.229Z,92787.31
2019-04-11T00:31:41.031Z,92790.58
2019-04-11T00:34:15.087Z,92792.66
2019-04-11T00:36:48.520Z,92797.02
2019-04-11T00:39:21.972Z,92801.31
2019-04-11T00:41:55.149Z,92803.36
2019-04-11T00:44:29.169Z,92802.72
2019-04-11T00:47:02.306Z,92802.52
2019-04-11T00:49:35.349Z,92804.80
2019-04-11T00:52:08.726Z,92809.07
2019-04-11T00:54:42.756Z,92803.66
2019-04-11T00:57:16.871Z,92806.81
2019-04-11T00:59:50.922Z,92799.25
2019-04-11T01:02:25.240Z,92804.20
2019-04-11T01:04:59.265Z,92803.16
2019-04-11T01:07:33.188Z,92807.28
2019-04-11T01:10:06.670Z,92810.78
2019-04-11T01:12:40.788Z,92812.16
2019-04-11T01:15:15.500Z,92810.78
2019-04-11T01:17:49.629Z,92808.95
2019-04-11T01:20:23.821Z,92810.94
2019-04-11T01:22:58.413Z,92813.61
2019-04-11T01:25:32.682Z,92813.09
2019-04-11T01:28:06.804Z,92809.89
2019-04-11T01:30:42.597Z,92814.91
2019-04-11T01:33:15.988Z,92818.06
2019-04-11T01:35:49.894Z,92817.86
2019-04-11T01:38:24.218Z,92820.22
2019-04-11T01:40:58.222Z,92817.39
2019-04-11T01:43:32.427Z,92816.42
2019-04-11T01:46:05.795Z,92820.34
2019-04-11T01:48:57.681Z,92819.53
2019-04-11T01:51:31.748Z,92810.53
2019-04-11T01:54:05.710Z,92813.17
2019-04-11T01:56:39.329Z,92810.25
2019-04-11T01:59:13.206Z,92810.69
2019-04-11T02:01:51.389Z,92790.02
2019-04-11T02:04:27.842Z,92797.89
2019-04-11T02:07:02.431Z,92798.42
2019-04-11T02:09:35.919Z,92790.94
2019-04-11T02:12:10.517Z,92797.89
2019-04-11T02:14:43.891Z,92793.54
2019-04-11T02:17:18.802Z,92787.60
2019-04-11T02:19:52.372Z,92785.75
2019-04-11T02:22:42.983Z,92790.61
2019-04-11T02:25:33.553Z,92779.69
2019-04-11T02:28:08.557Z,92787.20
2019-04-11T02:30:45.734Z,92781.99
2019-04-11T02:33:18.460Z,92779.12
2019-04-11T02:35:54.052Z,92774.22
2019-04-11T02:38:28.357Z,92775.70
2019-04-11T02:41:03.482Z,92771.36
2019-04-11T02:43:40.118Z,92770.55
2019-04-11T02:46:22.014Z,92774.53
2019-04-11T02:48:46.585Z,92770.17
2019-04-11T02:51:20.563Z,92772.25
2019-04-11T02:53:54.904Z,92772.25
2019-04-11T02:56:28.500Z,92775.91
2019-04-11T02:59:02.278Z,92771.02
2019-04-11T03:01:37.039Z,92767.91
2019-04-11T03:04:10.647Z,92773.17
2019-04-11T03:06:44.040Z,92777.52
2019-04-11T03:09:19.849Z,92782.02
2019-04-11T03:11:54.453Z,92784.27
2019-04-11T03:14:44.875Z,92790.89
2019-04-11T03:17:14.101Z,92794.28
2019-04-11T03:19:54.585Z,92792.45
2019-04-11T03:22:13.965Z,92796.21
2019-04-11T03:24:48.971Z,92798.61
2019-04-11T03:27:24.067Z,92799.06
2019-04-11T03:29:57.992Z,92800.22
2019-04-11T03:33:18.511Z,92797.36
2019-04-11T03:35:59.526Z,92799.15
2019-04-11T03:38:05.750Z,92797.24
2019-04-11T03:40:30.423Z,92803.91
2019-04-11T03:43:06.458Z,92808.39
2019-04-11T03:45:49.710Z,92814.66
2019-04-11T03:48:19.728Z,92813.58
2019-04-11T03:50:38.693Z,92815.14
2019-04-11T03:53:11.731Z,92816.94
2019-04-11T03:55:45.558Z,92815.33
2019-04-11T03:58:21.792Z,92813.13
2019-04-11T04:00:59.372Z,92815.86
2019-04-11T04:03:31.033Z,92816.88
2019-04-11T04:06:04.587Z,92820.61
2019-04-11T04:08:39.127Z,92811.39
2019-04-11T04:11:12.435Z,92816.87
2019-04-11T04:13:48.171Z,92821.58
2019-04-11T04:16:36.639Z,92818.68
2019-04-11T04:19:10.811Z,92822.32
2019-04-11T04:21:55.342Z,92825.75
2019-04-11T04:24:32.802Z,92825.74
2019-04-11T04:27:05.230Z,92832.58
2019-04-11T04:29:38.918Z,92832.58
2019-04-11T04:32:12.268Z,92836.27
2019-04-11T04:34:46.414Z,92843.63
2019-04-11T04:37:23.586Z,92849.20
2019-04-11T04:40:16.289Z,92855.57
2019-04-11T04:42:36.618Z,92860.08
2019-04-11T04:45:07.421Z,92865.11
2019-04-11T04:47:47.767Z,92863.23
2019-04-11T04:50:14.716Z,92861.36
2019-04-11T04:52:49.192Z,92853.16
2019-04-11T04:55:23.654Z,92857.84
2019-04-11T04:57:57.731Z,92859.69
2019-04-11T05:00:32.143Z,92865.39
2019-04-11T05:03:06.005Z,92863.58
2019-04-11T05:05:40.122Z,92863.00
2019-04-11T05:08:14.474Z,92862.95
2019-04-11T05:10:49.175Z,92869.30
2019-04-11T05:13:23.841Z,92866.41
2019-04-11T05:16:07.323Z,92870.41
2019-04-11T05:18:32.549Z,92869.35
2019-04-11T05:21:05.589Z,92864.56
2019-04-11T05:23:39.469Z,92875.59
2019-04-11T05:26:12.693Z,92868.77
2019-04-11T05:28:45.804Z,92874.73
2019-04-11T05:31:19.289Z,92874.20
2019-04-11T05:33:53.829Z,92873.35
2019-04-11T05:36:28.222Z,92875.78
2019-04-11T05:39:02.343Z,92875.58
2019-04-11T05:41:35.629Z,92877.09
2019-04-11T05:44:10.815Z,92878.44
2019-04-11T05:46:52.344Z,92878.08
2019-04-11T05:49:26.317Z,92881.91
2019-04-11T05:52:02.099Z,92882.19
2019-04-11T05:54:41.182Z,92941.00
2019-04-11T05:57:13.277Z,92892.69
2019-04-11T05:59:50.971Z,92890.39
2019-04-11T06:02:22.369Z,92896.64
2019-04-11T06:05:00.523Z,92893.05
2019-04-11T06:07:42.912Z,92900.72
2019-04-11T06:10:37.014Z,92898.89
2019-04-11T06:13:18.561Z,92903.13
2019-04-11T06:16:00.666Z,92905.17
2019-04-11T06:18:37.746Z,92916.00
2019-04-11T06:21:17.915Z,92908.88
2019-04-11T06:23:55.894Z,92916.82
2019-04-11T06:26:47.236Z,92912.31
2019-04-11T06:29:26.495Z,92922.06
2019-04-11T06:32:00.327Z,92920.25
2019-04-11T06:34:37.817Z,92930.54
2019-04-11T06:37:25.581Z,92929.45
2019-04-11T06:40:00.893Z,92937.36
2019-04-11T06:42:39.274Z,92944.77
2019-04-11T06:45:37.716Z,92944.75
2019-04-11T06:48:29.676Z,92953.73
2019-04-11T06:51:05.942Z,92953.98
2019-04-11T06:53:41.942Z,92956.93
2019-04-11T06:56:30.080Z,92964.56
2019-04-11T06:59:04.860Z,92966.16
2019-04-11T07:01:38.429Z,92975.36
2019-04-11T07:04:13.557Z,92970.07
2019-04-11T07:06:54.129Z,92972.95
2019-04-11T07:09:31.448Z,92973.19
2019-04-11T07:12:11.609Z,92980.69
2019-04-11T07:14:52.921Z,92977.12
2019-04-11T07:17:44.209Z,92978.88
2019-04-11T07:20:35.703Z,92977.12
2019-04-11T07:23:28.675Z,92981.92
2019-04-11T07:26:14.991Z,92978.98
2019-04-11T07:28:56.461Z,92986.50
2019-04-11T07:31:37.987Z,92990.39
2019-04-11T07:34:14.827Z,92986.12
2019-04-11T07:37:06.873Z,92986.52
2019-04-11T07:39:58.599Z,92995.41
2019-04-11T07:42:34.135Z,92998.80
2019-04-11T07:45:13.814Z,93001.38
2019-04-11T07:48:03.060Z,93013.20
2019-04-11T07:50:37.029Z,93022.81
2019-04-11T07:53:12.949Z,93025.94
2019-04-11T07:55:46.909Z,93022.23
2019-04-11T07:58:30.830Z,93026.75
2019-04-11T08:01:04.046Z,93022.89
2019-04-11T08:03:37.988Z,93018.59
2019-04-11T08:06:19.998Z,93015.11
2019-04-11T08:09:10.228Z,93020.61
2019-04-11T08:11:44.935Z,93020.11
2019-04-11T08:14:20.632Z,93015.83
2019-04-11T08:17:11.474Z,93011.49
2019-04-11T08:20:03.039Z,93025.94
2019-04-11T08:22:37.592Z,93023.68
2019-04-11T08:25:25.039Z,93018.50
2019-04-11T08:28:05.787Z,93021.67
2019-04-11T08:30:40.031Z,93029.86
2019-04-11T08:33:16.275Z,93031.53
2019-04-11T08:35:55.262Z,93026.33
2019-04-11T08:38:30.569Z,93030.10
2019-04-11T08:41:13.518Z,93035.43
2019-04-11T08:43:47.676Z,93038.90
2019-04-11T08:46:35.113Z,93037.86
2019-04-11T08:49:28.998Z,93038.71
2019-04-11T08:52:03.543Z,93040.00
2019-04-11T08:54:54.248Z,93042.38
2019-04-11T08:57:38.152Z,93050.05
2019-04-11T09:00:13.956Z,93046.03
2019-04-11T09:02:49.208Z,93051.70
2019-04-11T09:05:24.987Z,93055.55
2019-04-11T09:08:12.109Z,93056.85
2019-04-11T09:10:56.689Z,93060.64
2019-04-11T09:13:49.507Z,93056.87
2019-04-11T09:16:30.294Z,93062.32
2019-04-11T09:19:04.669Z,93058.51
2019-04-11T09:21:56.246Z,93062.31
2019-04-11T09:24:41.098Z,93061.47
2019-04-11T09:27:23.109Z,93069.85
2019-04-11T09:30:02.528Z,93070.38
2019-04-11T09:32:53.709Z,93069.11
2019-04-11T09:35:37.403Z,93069.16
2019-04-11T09:38:22.181Z,93064.02
2019-04-11T09:41:14.495Z,93066.91
2019-04-11T09:43:48.357Z,93068.52
2019-04-11T09:46:26.596Z,93070.84
2019-04-11T09:49:13.587Z,93063.73
2019-04-11T09:52:06.047Z,93070.31
2019-04-11T09:54:42.058Z,93077.20
2019-04-11T09:57:16.909Z,93080.92
2019-04-11T10:00:07.947Z,93080.94
2019-04-11T10:02:48.629Z,93080.66
2019-04-11T10:05:32.349Z,93081.13
2019-04-11T10:08:06.769Z,93084.85
2019-04-11T10:10:41.872Z,93090.42
2019-04-11T10:13:25.017Z,93091.65
2019-04-11T10:16:13.109Z,93094.84
2019-04-11T10:19:03.357Z,93097.80
2019-04-11T10:21:37.930Z,93099.94
2019-04-11T10:24:20.896Z,93099.67
2019-04-11T10:26:58.469Z,93101.50
2019-04-11T10:29:50.475Z,93102.04
2019-04-11T10:32:41.402Z,93100.71
2019-04-11T10:35:32.577Z,93106.15
2019-04-11T10:38:08.459Z,93113.30
2019-04-11T10:40:50.346Z,93105.31
2019-04-11T10:43:24.587Z,93112.06
2019-04-11T10:46:09.178Z,93121.41
2019-04-11T10:48:59.268Z,93119.90
2019-04-11T10:51:50.037Z,93118.94
2019-04-11T10:54:23.981Z,93120.81
2019-04-11T10:57:03.445Z,93127.36
2019-04-11T10:59:41.253Z,93124.55
2019-04-11T11:02:33.552Z,93123.20
2019-04-11T11:05:07.609Z,93126.64
2019-04-11T11:07:42.509Z,93124.80
2019-04-11T11:10:17.561Z,93129.51
2019-04-11T11:13:01.542Z,93127.95
2019-04-11T11:15:35.788Z,93135.63
2019-04-11T11:18:53.807Z,93134.44
2019-04-11T11:20:58.469Z,93133.48
2019-04-11T11:23:35.351Z,93137.52
2019-04-11T11:26:14.390Z,93143.30
2019-04-11T11:29:08.371Z,93143.42
2019-04-11T11:31:49.470Z,93145.00
2019-04-11T11:34:24.904Z,93150.30
2019-04-11T11:37:01.169Z,93143.84
2019-04-11T11:39:39.494Z,93148.12
2019-04-11T11:42:30.462Z,93150.80
2019-04-11T11:45:23.687Z,93153.50
2019-04-11T11:48:13.624Z,93148.39
2019-04-11T11:50:42.738Z,93147.67
2019-04-11T11:53:16.512Z,93148.02
2019-04-11T11:55:51.639Z,93154.06
2019-04-11T11:58:45.152Z,93147.72
2019-04-11T12:01:19.846Z,93148.96
2019-04-11T12:04:06.716Z,93148.87
2019-04-11T12:06:44.028Z,93150.30
2019-04-11T12:09:34.330Z,93150.38
2019-04-11T12:12:11.698Z,93156.08
2019-04-11T12:15:04.949Z,93161.05
2019-04-11T12:17:58.049Z,93157.37
2019-04-11T12:20:46.308Z,93160.09
2019-04-11T12:23:48.619Z,93162.30
2019-04-11T12:26:16.456Z,93162.70
2019-04-11T12:28:52.194Z,93163.52
2019-04-11T12:31:31.179Z,93161.99
2019-04-11T12:34:06.578Z,93163.20
2019-04-11T12:36:50.137Z,93162.39
2019-04-11T12:39:24.804Z,93161.95
2019-04-11T12:42:03.169Z,93165.70
2019-04-11T12:44:53.770Z,93168.12
2019-04-11T12:47:28.602Z,93166.86
2019-04-11T12:50:19.410Z,93158.80
2019-04-11T12:53:05.780Z,93163.58
2019-04-11T12:55:43.689Z,93171.08
2019-04-11T12:58:18.157Z,93168.66
2019-04-11T13:01:04.936Z,93166.48
2019-04-11T13:03:55.369Z,93168.47
2019-04-11T13:06:35.987Z,93163.77
2019-04-11T13:09:28.969Z,93163.69
2019-04-11T13:12:19.428Z,93165.52
2019-04-11T13:14:51.989Z,93162.48
2019-04-11T13:17:31.149Z,93163.42
2019-04-11T13:20:06.495Z,93158.72
2019-04-11T13:22:42.209Z,93164.00
2019-04-11T13:25:14.570Z,93169.08
2019-04-11T13:27:49.449Z,93166.58
2019-04-11T13:30:24.969Z,93173.91
2019-04-11T13:32:59.017Z,93172.55
2019-04-11T13:35:39.557Z,93167.16
2019-04-11T13:38:14.204Z,93174.55
2019-04-11T13:40:46.969Z,93172.85
2019-04-11T13:43:22.816Z,93174.02
2019-04-11T13:45:58.552Z,93174.32
2019-04-11T13:48:44.331Z,93175.11
2019-04-11T13:51:32.018Z,93170.14
2019-04-11T13:54:24.949Z,93174.28
2019-04-11T13:57:05.348Z,93177.82
2019-04-11T13:59:55.949Z,93178.34
2019-04-11T14:02:51.004Z,93175.34
2019-04-11T14:05:19.748Z,93166.54
2019-04-11T14:07:53.891Z,93174.93
2019-04-11T14:10:26.906Z,93175.48
2019-04-11T14:13:03.467Z,93183.05
2019-04-11T14:15:40.522Z,93172.41
2019-04-11T14:18:30.210Z,93172.73
2019-04-11T14:21:05.310Z,93171.72
2019-04-11T14:23:45.884Z,93172.30
2019-04-11T14:26:23.968Z,93167.91
2019-04-11T14:28:58.289Z,93169.53
2019-04-11T14:31:33.229Z,93161.56
2019-04-11T14:34:10.628Z,93170.28
2019-04-11T14:36:45.449Z,93165.80
2019-04-11T14:39:20.149Z,93168.07
2019-04-11T14:41:54.870Z,93168.95
2019-04-11T14:44:32.409Z,93173.22
2019-04-11T14:47:23.311Z,93172.59
2019-04-11T14:50:04.008Z,93172.65
2019-04-11T14:52:46.488Z,93172.17
2019-04-11T14:55:19.563Z,93170.28
2019-04-11T14:57:57.128Z,93171.86
2019-04-11T15:00:34.749Z,93174.01
2019-04-11T15:03:18.089Z,93174.77
2019-04-11T15:05:58.948Z,93173.69
2019-04-11T15:08:38.621Z,93173.18
2019-04-11T15:11:21.629Z,93174.41
2019-04-11T15:13:56.148Z,93173.34
2019-04-11T15:16:36.853Z,93176.02
2019-04-11T15:19:11.410Z,93173.29
2019-04-11T15:21:50.848Z,93165.92
2019-04-11T15:24:23.869Z,93169.64
2019-04-11T15:27:13.649Z,93169.02
2019-04-11T15:29:46.632Z,93163.98
2019-04-11T15:32:26.956Z,93165.31
2019-04-11T15:35:00.589Z,93168.00
2019-04-11T15:37:39.649Z,93167.58
2019-04-11T15:40:14.308Z,93164.05
2019-04-11T15:42:48.711Z,93167.22
2019-04-11T15:45:35.129Z,93160.78
2019-04-11T15:48:25.923Z,93172.55
2019-04-11T15:51:16.791Z,93171.70
2019-04-11T15:53:49.388Z,93175.12
2019-04-11T15:56:41.947Z,93167.22
2019-04-11T15:59:14.829Z,93176.65
2019-04-11T16:02:04.648Z,93173.02
2019-04-11T16:04:41.968Z,93170.92
2019-04-11T16:07:14.969Z,93173.30
2019-04-11T16:09:51.369Z,93171.45
2019-04-11T16:12:24.314Z,93173.86
2019-04-11T16:15:15.509Z,93170.97
2019-04-11T16:17:54.109Z,93178.62
2019-04-11T16:20:27.409Z,93183.84
2019-04-11T16:23:17.228Z,93184.37
2019-04-11T16:25:51.851Z,93182.61
2019-04-11T16:28:41.489Z,93182.08
2019-04-11T16:31:14.648Z,93178.93
2019-04-11T16:33:49.142Z,93184.20
2019-04-11T16:36:26.969Z,93185.35
2019-04-11T16:39:00.190Z,93186.20
2019-04-11T16:41:51.690Z,93184.35
2019-04-11T16:44:26.990Z,93193.38
2019-04-11T16:47:10.238Z,93190.75
2019-04-11T16:49:43.049Z,93192.59
2019-04-11T16:52:16.108Z,93187.52
2019-04-11T16:54:49.231Z,93188.11
2019-04-11T16:57:22.049Z,93186.89
2019-04-11T16:59:55.169Z,93189.42
2019-04-11T17:02:29.950Z,93187.88
2019-04-11T17:05:02.792Z,93193.70
2019-04-11T17:07:43.249Z,93195.32
2019-04-11T17:10:17.850Z,93182.92
2019-04-11T17:12:50.523Z,93198.17
2019-04-11T17:15:23.351Z,93193.39
2019-04-11T17:17:56.393Z,93196.55
2019-04-11T17:20:29.108Z,93196.27
2019-04-11T17:23:02.255Z,93203.19
2019-04-11T17:25:35.494Z,93198.44
2019-04-11T17:28:09.161Z,93207.31
2019-04-11T17:30:42.589Z,93201.55
2019-04-11T17:33:15.627Z,93205.19
2019-04-11T17:35:48.774Z,93206.56
2019-04-11T17:38:21.812Z,93209.98
2019-04-11T17:40:54.836Z,93213.06
2019-04-11T17:43:27.928Z,93215.83
2019-04-11T17:46:00.888Z,93217.31
2019-04-11T17:48:34.693Z,93222.58
2019-04-11T17:51:09.588Z,93224.95
2019-04-11T17:53:42.052Z,93224.09
2019-04-11T17:56:16.649Z,93229.16
2019-04-11T17:58:51.410Z,93235.47
2019-04-11T18:01:24.516Z,93240.40
2019-04-11T18:03:57.408Z,93239.88
2019-04-11T18:06:30.388Z,93241.19
2019-04-11T18:09:05.145Z,93248.75
2019-04-11T18:11:38.869Z,93246.86
2019-04-11T18:14:11.881Z,93251.08
2019-04-11T18:16:45.409Z,93256.98
2019-04-11T18:19:18.337Z,93258.60
2019-04-11T18:21:51.449Z,93259.94
2019-04-11T18:24:24.389Z,93263.14
2019-04-11T18:26:57.216Z,93262.13
2019-04-11T18:29:30.308Z,93268.11
2019-04-11T18:32:03.148Z,93264.20
2019-04-11T18:34:36.468Z,93270.85
2019-04-11T18:37:09.656Z,93274.95
2019-04-11T18:39:42.509Z,93277.30
2019-04-11T18:42:15.368Z,93277.80
2019-04-11T18:44:48.789Z,93283.83
2019-04-11T18:47:22.169Z,93286.19
2019-04-11T18:49:55.192Z,93287.45
2019-04-11T18:52:29.136Z,93291.00
2019-04-11T18:55:02.072Z,93294.27
2019-04-11T18:57:35.469Z,93292.69
2019-04-11T19:00:08.540Z,93292.35
2019-04-11T19:02:42.575Z,93298.11
2019-04-11T19:05:23.337Z,93293.58
2019-04-11T19:07:50.716Z,93301.31
2019-04-11T19:10:23.568Z,93296.82
2019-04-11T19:12:56.556Z,93298.44
2019-04-11T19:15:30.018Z,93298.47
2019-04-11T19:18:06.582Z,93301.56
2019-04-11T19:20:37.769Z,93298.42
2019-04-11T19:23:10.690Z,93299.94
2019-04-11T19:25:45.262Z,93300.04
2019-04-11T19:28:18.831Z,93298.80
2019-04-11T19:30:53.942Z,93301.33
2019-04-11T19:33:26.665Z,93305.62
2019-04-11T19:35:59.609Z,93299.86
2019-04-11T19:38:34.216Z,93293.41
2019-04-11T19:41:07.237Z,93302.23
2019-04-11T19:43:41.027Z,93297.61
2019-04-11T19:46:14.580Z,93297.97
2019-04-11T19:48:47.589Z,93303.21
2019-04-11T19:51:21.041Z,93300.83
2019-04-11T19:53:54.828Z,93298.06
2019-04-11T19:56:29.368Z,93305.48
2019-04-11T19:59:02.827Z,93306.91
2019-04-11T20:01:35.768Z,93310.84
2019-04-11T20:04:09.176Z,93305.92
2019-04-11T20:06:42.209Z,93304.66
2019-04-11T20:09:15.794Z,93306.55
2019-04-11T20:11:48.857Z,93300.57
2019-04-11T20:14:21.809Z,93308.41
2019-04-11T20:16:55.248Z,93306.72
2019-04-11T20:19:28.491Z,93308.67
2019-04-11T20:22:01.734Z,93309.19
2019-04-11T20:24:35.809Z,93312.48
2019-04-11T20:27:09.190Z,93310.95
2019-04-11T20:29:42.430Z,93311.89
2019-04-11T20:32:15.410Z,93310.70
2019-04-11T20:34:48.879Z,93305.04
2019-04-11T20:37:24.410Z,93307.50
2019-04-11T20:39:56.569Z,93307.91
2019-04-11T20:42:30.158Z,93302.27
2019-04-11T20:45:03.091Z,93307.45
2019-04-11T20:47:36.289Z,93313.98
2019-04-11T20:50:09.591Z,93311.22
2019-04-11T20:52:42.970Z,93315.12
2019-04-11T20:55:16.757Z,93312.22
2019-04-11T20:57:49.689Z,93314.53
2019-04-11T21:00:23.718Z,93309.91
2019-04-11T21:02:58.424Z,93309.20
2019-04-11T21:05:32.428Z,93307.44
2019-04-11T21:08:05.429Z,93302.21
2019-04-11T21:10:38.708Z,93306.83
2019-04-11T21:13:11.668Z,93309.05
2019-04-11T21:15:44.708Z,93312.17
2019-04-11T21:18:18.550Z,93308.98
2019-04-11T21:20:54.999Z,93319.37
2019-04-11T21:23:29.456Z,93315.35
2019-04-11T21:26:01.529Z,93315.08
2019-04-11T21:28:34.509Z,93317.25
2019-04-11T21:31:08.104Z,93316.58
2019-04-11T21:33:41.128Z,93322.59
2019-04-11T21:36:14.288Z,93316.59
2019-04-11T21:38:47.409Z,93322.48
2019-04-11T21:41:20.752Z,93324.18
2019-04-11T21:43:54.038Z,93330.78
2019-04-11T21:46:27.191Z,93326.90
2019-04-11T21:49:00.308Z,93323.05
2019-04-11T21:51:33.910Z,93320.19
2019-04-11T21:54:06.869Z,93316.27
2019-04-11T21:56:40.037Z,93311.99
2019-04-11T21:59:12.993Z,93314.95
2019-04-11T22:01:46.410Z,93315.96
2019-04-11T22:04:19.448Z,93306.84
2019-04-11T22:06:52.432Z,93315.75
2019-04-11T22:09:25.407Z,93311.34
2019-04-11T22:11:58.917Z,93309.14
2019-04-11T22:14:32.117Z,93313.67
2019-04-11T22:17:05.009Z,93313.66
2019-04-11T22:19:38.209Z,93316.54
2019-04-11T22:22:11.249Z,93312.16
2019-04-11T22:24:44.628Z,93313.98
2019-04-11T22:27:21.883Z,93319.59
2019-04-11T22:29:55.009Z,93316.66
2019-04-11T22:32:26.788Z,93317.33
2019-04-11T22:34:59.951Z,93316.39
2019-04-11T22:37:33.028Z,93313.64
2019-04-11T22:40:05.849Z,93314.01
2019-04-11T22:42:39.412Z,93302.91
2019-04-11T22:45:12.611Z,93306.30
2019-04-11T22:47:45.468Z,93316.48
2019-04-11T22:50:18.510Z,93313.60
2019-04-11T22:52:51.510Z,93309.97
2019-04-11T22:55:24.488Z,93309.61
2019-04-11T22:57:57.989Z,93301.23
2019-04-11T23:00:31.029Z,93303.15
2019-04-11T23:03:09.449Z,93305.39
2019-04-11T23:05:42.389Z,93310.06
2019-04-11T23:08:18.704Z,93308.02
2019-04-11T23:10:50.129Z,93302.20
2019-04-11T23:13:25.471Z,93311.01
2019-04-11T23:15:59.068Z,93306.57
2019-04-11T23:18:32.069Z,93302.02
2019-04-11T23:21:04.909Z,93310.52
2019-04-11T23:23:37.849Z,93312.32
2019-04-11T23:26:10.790Z,93305.87
2019-04-11T23:28:46.793Z,93307.77
2019-04-11T23:31:20.982Z,93306.80
2019-04-11T23:33:54.790Z,93306.11
2019-04-11T23:36:28.421Z,93311.40
2019-04-11T23:39:01.634Z,93307.59
2019-04-11T23:41:34.652Z,93310.31
2019-04-11T23:44:07.749Z,93310.64
2019-04-11T23:46:40.551Z,93307.13
2019-04-11T23:49:13.829Z,93304.73
2019-04-11T23:51:46.830Z,93304.50
2019-04-11T23:54:23.233Z,93303.75
2019-04-11T23:56:55.091Z,93302.77
2019-04-11T23:59:31.691Z,93301.69
